Lunenburg, MA (01462)

12:05 PM EST on February 14, 2016 (GMT -0500)
Sunny Hill | | Change Station
CLOSE
Current Station
Personal Weather Station
Location: Lunenburg, MA
Elevation: 564 ft
Nearby Weather Stations
Active Advisory: Winter Weather Statement Active Notice: Record Report

Elev 564 ft 42.58 °N, 71.73 °W | Updated 28 seconds ago

Clear
Clear
4.9 °F
Feels Like -5 °F
N
5.0
Wind Variable Wind from NW
Gusts 7.0 mph

Today
High -- | Low -- °F
--% Chance of Precip.
Yesterday
High -- | Low -- °F
Precip. -- in
Pressure 30.41 in
Visibility 10.0 miles
Clouds Clear
Windchill -5 °F
Dew Point -16 °F
Humidity 37%
Rainfall 0.00 in
Snow Depth Not available.
6:45 AM 5:16 PM
Waxing Crescent, 43% visible
METAR KFIT 141652Z AUTO 30012G17KT 10SM CLR M16/M27 A3037 RMK AO2 SLP297 T11561272
Pressure 30.41 in
Visibility 10.0 miles
Clouds Clear
Windchill -5 °F
Dew Point -16 °F
Humidity 37%
Rainfall 0.00 in
Snow Depth Not available.
6:45 AM 5:16 PM
Waxing Crescent, 43% visible
METAR KFIT 141652Z AUTO 30012G17KT 10SM CLR M16/M27 A3037 RMK AO2 SLP297 T11561272

10-Day Weather Forecast

Almanac

Astronomy

Feb. 14, 2016 Rise Set
Actual Time
Civil Twilight
Nautical Twilight
Astronomical Twilight
Moon
Length of Visible Light
Length of Day
Tomorrow will be .
, % of the Moon is Illuminated

Today's Extremes

State Highs State Lows

Community

WunderPhotos

Upload Photos

1,892,849 photos uploaded!

WunderBlog® & News

Nearby

Air Quality

  Air Quality AQ Index Pollutant
Not available.

Snow Depth

Station Depth Elevation

Earthquake Activity

City Distance Mag. Time & Date
Minimum magnitude displayed is 2.5.

Coastal Water Temperatures

Place Temperature

Stations

Nearby Weather Stations

Station Location Temp. Windchill Dew Point Humidity Wind Precip. Elev Updated Type
                   

Watches & Warnings

Winter Weather Statement
Issued: 12:03 PM EST Feb. 14, 2016 – National Weather Service

... Wind chill warning has expired...

High temperatures today will only be in the single digits to
teens... with wind chills likely not rising above zero.

Cold spells of this magnitude bring a risk of frostbite and
hypothermia for anyone who does not take proper precautions. Take
extra steps to keep yourself and even your pets warm.